Time;durP1;ratioP1;P1;durP2;ratioP2;P2;SDS_P1;SDS_P2;PMS_P1;PMS_P2;Temp;Humidity;BMP_temperature;BMP_pressure;BME280_temperature;BME280_humidity;BME280_pressure;Samples;Min_cycle;Max_cycle;Signal;HPM_P1;HPM_P2
2021/09/01 00:00:15;;;;;;;4.50;2.40;;;;;;;14.93;88.47;100142.67;95142;1181;78584;-61
2021/09/01 00:02:42;;;;;;;5.40;3.40;;;;;;;14.94;88.36;100147.09;95148;1181;82353;-61
2021/09/01 00:04:50;;;;;;;3.40;2.40;;;;;;;14.93;88.50;100147.66;95272;1180;97550;-61
2021/09/01 00:06:57;;;;;;;3.70;2.10;;;;;;;14.92;88.50;100150.70;95131;1181;86548;-60
2021/09/01 00:09:07;;;;;;;3.30;2.00;;;;;;;14.92;88.51;100150.66;95129;1181;93925;-61
2021/09/01 00:11:14;;;;;;;2.90;1.80;;;;;;;14.95;88.45;100151.86;95254;1180;80359;-59
2021/09/01 00:13:22;;;;;;;5.00;2.70;;;;;;;14.94;88.59;100148.73;95103;1181;80814;-60
2021/09/01 00:15:33;;;;;;;3.80;2.40;;;;;;;14.96;88.44;100148.95;95264;1180;97857;-61
2021/09/01 00:17:40;;;;;;;4.30;2.80;;;;;;;14.94;88.66;100152.36;95145;1181;86620;-65
2021/09/01 00:19:48;;;;;;;6.90;4.30;;;;;;;14.89;88.75;100147.19;95255;1180;92706;-58
2021/09/01 00:21:56;;;;;;;5.20;3.20;;;;;;;14.88;88.80;100151.54;95276;1180;80113;-61
2021/09/01 00:24:04;;;;;;;4.10;2.80;;;;;;;14.90;88.66;100149.73;95146;1181;82764;-64
2021/09/01 00:26:11;;;;;;;2.90;2.00;;;;;;;14.95;88.53;100148.70;95252;1180;98910;-60
2021/09/01 00:28:22;;;;;;;4.30;2.20;;;;;;;14.94;88.59;100148.98;95275;1180;86895;-61
2021/09/01 00:30:29;;;;;;;4.20;2.40;;;;;;;14.94;88.64;100151.48;95057;1182;93149;-60
2021/09/01 00:32:37;;;;;;;3.20;2.50;;;;;;;14.89;88.97;100151.61;95252;1180;79384;-60
2021/09/01 00:34:45;;;;;;;5.10;2.30;;;;;;;14.87;88.75;100150.41;95338;1180;81655;-60
2021/09/01 00:36:52;;;;;;;3.60;2.20;;;;;;;14.85;89.04;100152.08;95287;1180;98393;-61
2021/09/01 00:39:00;;;;;;;3.80;2.70;;;;;;;14.84;88.91;100153.95;95116;1181;87471;-60
2021/09/01 00:41:07;;;;;;;2.90;2.10;;;;;;;14.80;89.36;100156.05;95219;1180;92761;-61
2021/09/01 00:43:16;;;;;;;5.10;2.20;;;;;;;14.80;89.21;100161.91;95164;1181;80105;-65
2021/09/01 00:45:23;;;;;;;4.10;2.10;;;;;;;14.87;88.94;100160.21;95321;1180;81538;-59
2021/09/01 00:47:35;;;;;;;4.80;2.60;;;;;;;14.89;88.89;100162.21;95166;1181;97866;-59
2021/09/01 00:49:43;;;;;;;6.50;2.30;;;;;;;14.89;89.18;100162.70;95304;1180;87328;-61
2021/09/01 00:51:52;;;;;;;3.40;2.30;;;;;;;14.84;89.09;100163.34;95284;1180;93648;-59
2021/09/01 00:54:00;;;;;;;4.80;2.10;;;;;;;14.80;89.18;100168.30;95308;1180;80166;-64
2021/09/01 00:56:09;;;;;;;3.10;2.00;;;;;;;14.81;89.02;100168.97;95154;1182;82676;-59
2021/09/01 00:58:19;;;;;;;3.00;2.00;;;;;;;14.85;88.96;100170.90;95235;1179;97902;-63
2021/09/01 01:00:34;;;;;;;4.30;1.80;;;;;;;14.87;88.96;100175.15;95064;1181;87042;-61
2021/09/01 01:02:43;;;;;;;2.40;1.70;;;;;;;14.87;89.00;100179.88;95240;1180;92457;-60
2021/09/01 01:04:51;;;;;;;3.00;2.10;;;;;;;14.87;89.09;100179.67;95246;1180;81079;-60
2021/09/01 01:07:03;;;;;;;3.20;2.10;;;;;;;14.86;89.00;100183.06;95284;1180;81645;-61
2021/09/01 01:09:12;;;;;;;3.10;1.70;;;;;;;14.85;89.04;100180.10;95174;1181;97646;-62
2021/09/01 01:11:24;;;;;;;2.80;1.80;;;;;;;14.84;89.09;100187.77;95325;1180;87345;-61
2021/09/01 01:13:34;;;;;;;2.60;1.80;;;;;;;14.86;89.15;100185.73;95071;1181;94090;-64
2021/09/01 01:15:43;;;;;;;3.00;2.00;;;;;;;14.88;89.10;100186.48;95289;1180;78178;-62
2021/09/01 01:17:54;;;;;;;3.80;1.90;;;;;;;14.87;89.04;100187.49;95297;1180;81145;-61
2021/09/01 01:20:07;;;;;;;1.90;1.50;;;;;;;14.83;89.40;100191.66;95287;1180;97273;-60
2021/09/01 01:22:16;;;;;;;3.70;1.70;;;;;;;14.76;89.38;100192.68;95200;1181;86894;-59
2021/09/01 01:24:23;;;;;;;3.60;2.10;;;;;;;14.71;89.73;100192.48;95185;1180;92701;-59
2021/09/01 01:26:33;;;;;;;2.80;1.50;;;;;;;14.69;89.62;100192.52;95248;1180;82031;-60
2021/09/01 01:28:40;;;;;;;2.60;1.90;;;;;;;14.66;89.70;100192.69;95130;1181;81810;-58
2021/09/01 01:30:48;;;;;;;2.60;1.60;;;;;;;14.72;89.45;100192.93;95265;1180;96975;-61
2021/09/01 01:32:59;;;;;;;4.20;1.80;;;;;;;14.72;89.46;100192.13;95111;1181;86885;-60
2021/09/01 01:35:09;;;;;;;2.00;1.60;;;;;;;14.70;89.68;100195.33;95224;1180;94068;-58
2021/09/01 01:37:17;;;;;;;3.80;1.80;;;;;;;14.69;89.58;100197.46;95321;1180;79059;-59
2021/09/01 01:39:24;;;;;;;2.90;1.70;;;;;;;14.71;89.51;100198.67;95146;1181;81125;-61
2021/09/01 01:41:32;;;;;;;4.10;2.10;;;;;;;14.66;89.63;100199.05;95294;1180;98251;-59
2021/09/01 01:43:41;;;;;;;2.90;2.10;;;;;;;14.62;89.80;100197.27;95256;1180;86822;-60
2021/09/01 01:45:49;;;;;;;2.60;1.90;;;;;;;14.62;89.79;100197.81;95257;1180;93449;-61
2021/09/01 01:48:00;;;;;;;2.70;1.60;;;;;;;14.62;89.81;100201.08;95200;1180;80083;-61
2021/09/01 01:50:09;;;;;;;3.10;2.00;;;;;;;14.61;89.84;100204.14;95210;1180;83013;-59
2021/09/01 01:52:17;;;;;;;2.80;1.80;;;;;;;14.66;89.66;100204.48;95282;1180;97819;-61
2021/09/01 01:54:24;;;;;;;2.80;1.60;;;;;;;14.68;89.58;100206.48;95247;1180;88277;-60
2021/09/01 01:56:32;;;;;;;2.20;1.40;;;;;;;14.71;89.54;100204.95;95132;1181;94190;-59
2021/09/01 01:58:39;;;;;;;4.10;1.50;;;;;;;14.66;89.67;100203.77;95245;1180;80105;-59
2021/09/01 02:00:47;;;;;;;2.70;1.80;;;;;;;14.67;89.53;100209.33;95326;1180;80767;-59
2021/09/01 02:02:55;;;;;;;4.10;1.90;;;;;;;14.67;89.52;100208.23;95246;1180;97202;-60
2021/09/01 02:05:04;;;;;;;2.20;1.60;;;;;;;14.58;89.97;100208.46;95103;1181;88257;-61
2021/09/01 02:07:12;;;;;;;1.50;1.20;;;;;;;14.59;89.72;100210.56;95287;1180;92582;-60
2021/09/01 02:09:19;;;;;;;2.00;1.40;;;;;;;14.60;89.73;100210.64;95056;1181;78790;-60
2021/09/01 02:11:27;;;;;;;1.70;1.30;;;;;;;14.58;89.93;100212.20;95152;1181;80052;-60
2021/09/01 02:13:37;;;;;;;2.00;1.60;;;;;;;14.54;89.83;100215.23;95261;1180;98386;-62
2021/09/01 02:15:45;;;;;;;3.50;1.70;;;;;;;14.55;89.91;100213.55;95137;1181;88244;-60
2021/09/01 02:17:53;;;;;;;2.10;1.80;;;;;;;14.55;89.85;100217.15;95200;1180;94058;-60
2021/09/01 02:20:06;;;;;;;3.00;2.00;;;;;;;14.53;89.92;100215.08;95104;1181;81185;-59
2021/09/01 02:22:12;;;;;;;;;;;;;;;14.56;89.74;100217.89;95279;1180;81543;-59
2021/09/01 02:24:20;;;;;;;2.20;1.70;;;;;;;14.51;90.08;100216.80;95254;1180;97833;-58
2021/09/01 02:26:28;;;;;;;2.50;1.50;;;;;;;14.52;90.08;100222.31;95160;1181;86980;-61
2021/09/01 02:28:36;;;;;;;1.80;1.30;;;;;;;14.52;90.21;100224.11;95216;1180;93570;-59
2021/09/01 02:30:44;;;;;;;3.60;1.30;;;;;;;14.54;90.09;100227.02;95248;1182;79898;-59
2021/09/01 02:32:51;;;;;;;1.80;1.40;;;;;;;14.55;90.03;100234.21;95233;1180;80539;-60
2021/09/01 02:35:02;;;;;;;2.00;1.60;;;;;;;14.52;90.09;100231.64;95111;1181;97213;-60
2021/09/01 02:37:10;;;;;;;2.60;1.20;;;;;;;14.50;90.13;100235.75;95328;1180;88215;-60
2021/09/01 02:39:17;;;;;;;3.60;1.70;;;;;;;14.46;90.11;100233.14;95230;1180;92564;-61
2021/09/01 02:41:25;;;;;;;3.30;1.40;;;;;;;14.41;90.36;100232.70;95179;1180;80362;-61
2021/09/01 02:43:32;;;;;;;1.80;1.40;;;;;;;14.40;90.62;100235.64;95087;1181;81837;-62
2021/09/01 02:45:40;;;;;;;2.90;1.90;;;;;;;14.36;90.49;100234.41;95269;1180;96931;-60
2021/09/01 02:47:51;;;;;;;2.30;1.50;;;;;;;14.38;91.02;100237.66;95154;1181;87833;-61
2021/09/01 02:49:59;;;;;;;2.60;1.70;;;;;;;14.37;90.61;100239.88;95326;1180;93981;-60
2021/09/01 02:52:09;;;;;;;2.50;1.60;;;;;;;14.38;90.50;100240.05;95154;1181;80903;-61
2021/09/01 02:54:17;;;;;;;2.20;1.50;;;;;;;14.39;90.83;100243.84;95127;1181;80559;-59
2021/09/01 02:56:25;;;;;;;1.90;1.50;;;;;;;14.39;90.59;100242.30;95241;1180;97638;-61
2021/09/01 02:58:32;;;;;;;2.90;2.10;;;;;;;14.41;90.36;100242.04;95244;1180;87329;-59
2021/09/01 03:00:43;;;;;;;2.30;1.90;;;;;;;14.47;90.25;100242.92;95193;1180;94359;-59
2021/09/01 03:02:51;;;;;;;2.90;2.10;;;;;;;14.45;90.41;100248.16;95222;1180;80738;-60
2021/09/01 03:04:58;;;;;;;2.70;1.70;;;;;;;14.43;90.39;100249.96;95187;1180;80577;-62
2021/09/01 03:07:06;;;;;;;2.30;1.90;;;;;;;14.44;90.35;100250.30;95151;1181;97332;-62
2021/09/01 03:09:14;;;;;;;2.40;1.70;;;;;;;14.42;90.39;100253.93;95216;1182;87780;-60
2021/09/01 03:11:22;;;;;;;3.90;1.90;;;;;;;14.43;90.29;100253.14;95265;1180;93266;-61
2021/09/01 03:13:30;;;;;;;3.30;1.90;;;;;;;14.46;90.28;100250.98;95101;1181;79458;-62
2021/09/01 03:15:37;;;;;;;3.40;1.50;;;;;;;14.48;90.31;100251.52;95177;1181;79759;-61
2021/09/01 03:17:45;;;;;;;2.50;1.90;;;;;;;14.43;90.29;100252.73;95251;1180;98087;-61
2021/09/01 03:19:53;;;;;;;2.60;1.80;;;;;;;14.45;90.21;100253.73;95303;1180;86741;-60
2021/09/01 03:22:01;;;;;;;3.40;2.10;;;;;;;14.43;90.27;100257.24;95239;1180;92884;-61
2021/09/01 03:24:09;;;;;;;2.30;1.90;;;;;;;14.41;90.40;100255.33;95124;1181;79802;-61
2021/09/01 03:26:20;;;;;;;2.50;1.70;;;;;;;14.39;90.41;100261.48;95281;1180;80632;-60
2021/09/01 03:28:30;;;;;;;2.50;1.90;;;;;;;14.40;90.47;100270.85;95098;1181;98380;-60
2021/09/01 03:30:38;;;;;;;2.70;1.70;;;;;;;14.37;90.42;100273.66;95258;1180;87041;-61
2021/09/01 03:32:46;;;;;;;4.10;2.00;;;;;;;14.36;90.55;100274.22;95101;1181;94564;-58
2021/09/01 03:34:53;;;;;;;3.60;2.10;;;;;;;14.35;90.45;100278.36;95271;1180;79808;-60
2021/09/01 03:37:01;;;;;;;3.10;2.40;;;;;;;14.36;90.47;100278.48;95269;1180;82610;-60
2021/09/01 03:39:09;;;;;;;2.20;1.80;;;;;;;14.37;90.33;100283.48;95141;1181;97785;-62
2021/09/01 03:41:17;;;;;;;2.50;1.80;;;;;;;14.34;90.46;100285.59;95289;1180;87233;-61
2021/09/01 03:43:24;;;;;;;2.40;1.90;;;;;;;14.36;90.33;100285.51;95233;1180;93297;-61
2021/09/01 03:45:36;;;;;;;4.10;1.80;;;;;;;14.32;90.55;100287.80;95235;1180;81026;-60
2021/09/01 03:47:44;;;;;;;2.30;2.00;;;;;;;14.32;90.44;100289.69;95130;1181;81219;-61
2021/09/01 03:49:51;;;;;;;3.80;2.00;;;;;;;14.31;90.53;100289.41;95240;1180;99339;-61
2021/09/01 03:51:59;;;;;;;2.60;1.90;;;;;;;14.34;90.48;100293.04;95152;1181;88142;-61
2021/09/01 03:54:07;;;;;;;4.70;2.50;;;;;;;14.32;90.57;100297.13;95272;1180;94526;-63
2021/09/01 03:56:14;;;;;;;3.20;2.20;;;;;;;14.34;90.49;100300.73;95251;1180;80528;-62
2021/09/01 03:58:22;;;;;;;4.10;2.20;;;;;;;14.33;90.47;100297.14;95080;1181;80978;-61
2021/09/01 04:00:30;;;;;;;2.50;2.00;;;;;;;14.32;90.53;100299.85;95266;1180;97416;-62
2021/09/01 04:02:37;;;;;;;4.10;2.20;;;;;;;14.30;90.51;100306.52;95266;1180;88412;-60
2021/09/01 04:04:45;;;;;;;3.90;2.50;;;;;;;14.31;90.54;100307.39;95140;1181;93170;-59
2021/09/01 04:06:52;;;;;;;3.20;2.50;;;;;;;14.33;90.44;100309.98;95258;1180;79881;-60
2021/09/01 04:09:03;;;;;;;4.10;2.40;;;;;;;14.36;90.53;100311.17;95099;1181;80767;-60
2021/09/01 04:11:14;;;;;;;3.90;3.00;;;;;;;14.36;90.49;100312.17;95270;1180;97420;-60
2021/09/01 04:13:21;;;;;;;4.30;2.80;;;;;;;14.38;90.55;100321.78;95111;1181;89179;-61
2021/09/01 04:15:29;;;;;;;4.10;2.80;;;;;;;14.34;90.41;100323.39;95250;1180;94997;-60
2021/09/01 04:17:36;;;;;;;4.00;2.80;;;;;;;14.29;90.55;100325.45;95156;1181;80814;-61
2021/09/01 04:19:47;;;;;;;3.90;3.10;;;;;;;14.24;90.65;100328.63;95269;1180;81806;-58
2021/09/01 04:21:54;;;;;;;4.10;3.10;;;;;;;14.24;90.49;100333.35;95278;1180;96881;-59
2021/09/01 04:24:02;;;;;;;5.30;3.30;;;;;;;14.21;90.79;100335.33;95148;1181;87227;-62
2021/09/01 04:26:09;;;;;;;3.80;3.00;;;;;;;14.21;90.77;100339.17;95245;1180;93495;-59
2021/09/01 04:28:17;;;;;;;5.30;3.70;;;;;;;14.18;90.84;100342.10;95237;1180;78234;-60
2021/09/01 04:30:27;;;;;;;4.30;3.30;;;;;;;14.14;90.93;100342.49;95132;1181;79347;-60
2021/09/01 04:32:35;;;;;;;5.20;3.80;;;;;;;14.16;90.73;100341.56;95244;1180;98220;-60
2021/09/01 04:34:42;;;;;;;6.20;4.00;;;;;;;14.16;90.97;100346.80;95275;1180;88725;-60
2021/09/01 04:36:50;;;;;;;5.50;4.30;;;;;;;14.13;91.02;100344.83;95270;1180;94653;-61
2021/09/01 04:38:57;;;;;;;5.30;3.80;;;;;;;14.17;90.79;100345.54;95231;1180;81586;-59
2021/09/01 04:41:05;;;;;;;6.20;4.70;;;;;;;14.17;90.95;100347.76;95162;1181;81404;-59
2021/09/01 04:43:15;;;;;;;5.70;4.40;;;;;;;14.16;90.93;100347.88;95248;1180;96973;-61
2021/09/01 04:45:23;;;;;;;6.70;4.50;;;;;;;14.20;90.84;100351.98;95142;1181;86725;-60
2021/09/01 04:47:30;;;;;;;6.30;4.80;;;;;;;14.19;90.94;100356.69;95247;1180;94630;-60
2021/09/01 04:49:38;;;;;;;6.40;5.20;;;;;;;14.21;91.00;100362.36;95240;1180;80813;-62
2021/09/01 04:51:46;;;;;;;9.10;5.70;;;;;;;14.20;91.00;100365.34;95266;1180;81059;-61
2021/09/01 04:53:56;;;;;;;6.20;5.00;;;;;;;14.25;90.74;100361.73;95267;1180;96803;-62
2021/09/01 04:56:05;;;;;;;8.80;5.80;;;;;;;14.24;90.76;100365.66;95144;1181;87962;-63
2021/09/01 04:58:13;;;;;;;7.10;5.10;;;;;;;14.28;90.62;100368.83;95250;1180;94300;-59
2021/09/01 05:00:22;;;;;;;7.10;5.50;;;;;;;14.24;90.98;100368.09;95174;1181;79719;-59
2021/09/01 05:02:29;;;;;;;6.30;5.60;;;;;;;14.22;90.76;100371.90;95290;1180;80627;-61
2021/09/01 05:04:37;;;;;;;10.50;6.90;;;;;;;14.22;90.79;100370.23;95082;1181;96844;-65
2021/09/01 05:06:44;;;;;;;7.00;5.90;;;;;;;14.23;90.80;100372.60;95293;1180;87566;-65
2021/09/01 05:08:52;;;;;;;7.90;6.20;;;;;;;14.20;91.04;100374.50;95132;1181;94768;-60
2021/09/01 05:10:59;;;;;;;8.30;5.80;;;;;;;14.27;90.80;100371.71;95279;1180;81308;-60
2021/09/01 05:13:08;;;;;;;7.20;6.30;;;;;;;14.25;90.79;100378.07;95138;1181;81505;-61
2021/09/01 05:15:16;;;;;;;7.80;6.20;;;;;;;14.30;90.72;100376.84;95274;1180;98575;-61
2021/09/01 05:17:24;;;;;;;6.70;6.00;;;;;;;14.25;90.93;100383.16;95139;1181;87360;-62
2021/09/01 05:19:32;;;;;;;8.30;6.40;;;;;;;14.26;90.97;100384.02;95250;1180;93516;-61
2021/09/01 05:21:47;;;;;;;9.10;7.70;;;;;;;14.26;90.88;100380.12;95260;1180;77599;-62
2021/09/01 05:23:56;;;;;;;7.60;6.40;;;;;;;14.29;90.82;100382.23;95234;1181;80553;-65
2021/09/01 05:26:06;;;;;;;8.60;6.20;;;;;;;14.34;90.69;100378.67;95215;1180;98078;-66
2021/09/01 05:28:17;;;;;;;9.20;6.40;;;;;;;14.34;90.75;100378.00;95122;1181;87875;-62
2021/09/01 05:30:30;;;;;;;10.00;6.70;;;;;;;14.42;90.61;100380.69;95303;1180;93205;-61
2021/09/01 05:32:43;;;;;;;7.50;5.90;;;;;;;14.47;90.57;100383.60;95128;1181;79136;-66
2021/09/01 05:34:53;;;;;;;10.30;7.00;;;;;;;14.50;90.45;100387.00;95222;1180;81673;-62
2021/09/01 05:37:01;;;;;;;7.00;6.30;;;;;;;14.56;90.40;100391.70;95248;1180;97372;-62
2021/09/01 05:39:08;;;;;;;9.40;6.60;;;;;;;14.59;90.46;100394.46;95082;1181;88443;-61
2021/09/01 05:41:17;;;;;;;7.90;6.50;;;;;;;14.61;90.36;100396.92;95227;1180;94291;-61
2021/09/01 05:43:26;;;;;;;9.00;6.40;;;;;;;14.60;90.26;100399.43;95229;1180;79882;-59
2021/09/01 05:45:34;;;;;;;8.60;6.50;;;;;;;14.57;90.31;100403.88;95322;1180;81087;-60
2021/09/01 05:47:44;;;;;;;10.80;7.00;;;;;;;14.56;90.27;100406.60;95141;1181;97492;-62
2021/09/01 05:49:54;;;;;;;10.00;6.90;;;;;;;14.60;90.29;100409.43;95268;1180;88182;-62
2021/09/01 05:52:02;;;;;;;9.10;6.90;;;;;;;14.61;90.25;100416.36;95284;1180;94189;-61
2021/09/01 05:54:10;;;;;;;7.70;6.50;;;;;;;14.53;90.29;100416.23;95294;1180;79930;-61
2021/09/01 05:56:25;;;;;;;7.90;6.00;;;;;;;14.48;90.32;100417.08;95134;1181;81742;-59
2021/09/01 05:58:38;;;;;;;9.30;6.80;;;;;;;14.48;90.31;100417.84;95281;1180;96385;-61
2021/09/01 06:00:48;;;;;;;7.90;6.90;;;;;;;14.48;90.31;100418.72;95161;1181;88181;-63
2021/09/01 06:03:03;;;;;;;11.40;7.30;;;;;;;14.45;90.36;100420.11;95250;1180;93867;-61
2021/09/01 06:05:13;;;;;;;8.90;6.70;;;;;;;14.46;90.32;100422.66;95265;1180;79957;-60
2021/09/01 06:07:26;;;;;;;9.30;7.40;;;;;;;14.52;90.34;100421.30;95302;1180;81080;-64
2021/09/01 06:09:36;;;;;;;11.60;6.70;;;;;;;14.62;90.22;100420.71;95224;1180;97612;-61
2021/09/01 06:11:46;;;;;;;9.10;6.80;;;;;;;14.65;90.15;100420.34;95303;1180;87936;-61
2021/09/01 06:13:54;;;;;;;8.80;7.00;;;;;;;14.66;90.14;100424.64;95085;1181;93791;-62
2021/09/01 06:16:01;;;;;;;8.20;6.40;;;;;;;14.68;90.22;100424.59;95256;1180;79098;-61
2021/09/01 06:18:11;;;;;;;9.50;6.80;;;;;;;14.72;90.09;100432.73;95101;1181;81076;-60
2021/09/01 06:20:19;;;;;;;7.60;6.60;;;;;;;14.76;89.90;100432.20;95249;1180;96556;-62
2021/09/01 06:22:26;;;;;;;9.50;6.40;;;;;;;14.72;89.93;100437.29;95262;1180;88268;-61
2021/09/01 06:24:35;;;;;;;9.00;6.60;;;;;;;14.68;89.87;100436.89;95094;1181;93974;-61
2021/09/01 06:26:43;;;;;;;9.10;6.80;;;;;;;14.65;89.85;100440.45;95293;1180;81076;-61
2021/09/01 06:28:51;;;;;;;7.70;6.30;;;;;;;14.66;89.77;100442.50;95156;1181;82075;-61
2021/09/01 06:30:58;;;;;;;9.40;7.10;;;;;;;14.76;89.84;100441.08;95282;1180;97578;-62
2021/09/01 06:33:07;;;;;;;9.30;7.10;;;;;;;14.84;89.83;100439.63;95253;1180;87736;-61
2021/09/01 06:35:15;;;;;;;14.50;11.10;;;;;;;14.96;89.73;100446.94;95180;1180;94445;-61
2021/09/01 06:37:23;;;;;;;11.40;8.80;;;;;;;14.97;89.35;100448.27;95043;1184;81691;-61
2021/09/01 06:39:30;;;;;;;8.60;6.40;;;;;;;14.96;89.33;100449.06;95236;1180;80164;-60
2021/09/01 06:41:38;;;;;;;8.10;6.60;;;;;;;14.98;89.32;100448.42;95295;1180;96258;-60
2021/09/01 06:43:46;;;;;;;10.40;7.00;;;;;;;15.02;89.27;100451.70;95268;1180;86339;-64
2021/09/01 06:45:53;;;;;;;9.30;6.70;;;;;;;15.10;89.20;100453.56;95289;1180;93345;-62
2021/09/01 06:48:01;;;;;;;9.50;6.00;;;;;;;15.37;89.32;100447.96;95271;1180;79636;-73
2021/09/01 06:50:12;;;;;;;9.20;6.00;;;;;;;15.56;88.79;100451.92;95232;1180;82724;-73
2021/09/01 06:52:20;;;;;;;8.20;6.00;;;;;;;15.88;88.82;100455.85;95255;1180;97535;-64
2021/09/01 06:54:28;;;;;;;6.90;5.70;;;;;;;16.23;88.30;100455.13;95233;1180;88132;-65
2021/09/01 06:56:35;;;;;;;8.20;6.20;;;;;;;16.45;88.16;100451.98;95244;1180;95501;-65
2021/09/01 06:58:45;;;;;;;9.40;5.90;;;;;;;16.73;87.84;100455.82;95236;1180;80135;-72
2021/09/01 07:00:56;;;;;;;9.20;6.40;;;;;;;16.83;86.73;100456.77;95293;1181;80726;-73
2021/09/01 07:03:03;;;;;;;9.40;5.30;;;;;;;16.94;86.53;100457.64;95234;1180;98784;-66
2021/09/01 07:05:14;;;;;;;8.60;5.90;;;;;;;17.00;85.81;100458.85;95260;1180;86910;-64
2021/09/01 07:07:22;;;;;;;7.90;5.90;;;;;;;17.17;86.20;100462.33;95294;1180;93207;-73
2021/09/01 07:09:29;;;;;;;8.60;6.20;;;;;;;17.38;86.17;100471.39;95226;1181;78979;-72
2021/09/01 07:11:37;;;;;;;6.80;5.90;;;;;;;17.37;85.20;100477.42;95295;1180;82143;-74
2021/09/01 07:13:45;;;;;;;6.80;5.70;;;;;;;17.18;84.97;100474.11;95244;1180;98292;-66
2021/09/01 07:15:52;;;;;;;7.50;5.40;;;;;;;17.06;84.78;100477.77;95242;1182;88419;-65
2021/09/01 07:18:00;;;;;;;8.90;6.60;;;;;;;16.92;83.98;100479.36;95210;1180;94366;-67
2021/09/01 07:20:10;;;;;;;10.80;5.90;;;;;;;16.77;84.07;100489.23;95238;1180;77251;-63
2021/09/01 07:22:18;;;;;;;7.60;5.80;;;;;;;16.90;84.52;100485.10;95257;1180;81712;-63
2021/09/01 07:24:25;;;;;;;7.50;5.80;;;;;;;16.89;84.32;100487.13;95281;1180;96544;-61
2021/09/01 07:26:33;;;;;;;10.30;5.50;;;;;;;17.14;84.36;100492.02;95286;1180;87848;-63
2021/09/01 07:28:41;;;;;;;8.50;5.90;;;;;;;17.41;84.54;100494.39;95228;1180;94326;-64
2021/09/01 07:30:49;;;;;;;7.60;5.50;;;;;;;17.41;83.08;100494.84;95271;1180;79414;-63
2021/09/01 07:32:59;;;;;;;6.60;4.90;;;;;;;17.44;83.22;100495.64;95285;1180;80502;-63
2021/09/01 07:35:09;;;;;;;7.30;5.90;;;;;;;17.49;82.50;100492.71;95260;1180;96505;-61
2021/09/01 07:37:17;;;;;;;8.20;5.40;;;;;;;17.46;82.59;100498.90;95258;1180;86312;-63
2021/09/01 07:39:24;;;;;;;5.90;4.90;;;;;;;17.66;82.34;100494.96;95250;1180;94412;-64
2021/09/01 07:41:37;;;;;;;7.70;5.50;;;;;;;17.98;82.07;100498.64;95277;1180;80050;-63
2021/09/01 07:43:44;;;;;;;8.10;5.70;;;;;;;18.45;81.78;100486.55;95260;1180;82223;-70
2021/09/01 07:45:52;;;;;;;6.70;4.60;;;;;;;19.06;81.64;100492.11;95264;1180;97930;-63
2021/09/01 07:47:59;;;;;;;8.20;5.00;;;;;;;19.43;79.25;100489.38;95273;1180;86437;-63
2021/09/01 07:50:10;;;;;;;11.00;5.40;;;;;;;19.68;80.20;100492.52;95307;1180;94001;-61
2021/09/01 07:52:17;;;;;;;6.80;5.30;;;;;;;19.87;79.55;100497.32;95262;1180;79559;-62
2021/09/01 07:54:25;;;;;;;6.80;4.80;;;;;;;20.02;78.16;100495.92;95250;1180;79770;-63
2021/09/01 07:56:33;;;;;;;7.10;5.10;;;;;;;19.67;77.86;100499.31;95239;1180;96905;-64
2021/09/01 07:58:40;;;;;;;7.90;5.40;;;;;;;19.43;76.31;100499.56;95223;1181;86682;-62
2021/09/01 08:00:48;;;;;;;6.40;4.80;;;;;;;19.69;77.05;100498.30;95236;1180;94179;-61
2021/09/01 08:02:58;;;;;;;7.90;5.20;;;;;;;20.49;76.24;100500.61;95271;1180;79018;-60
2021/09/01 08:05:09;;;;;;;6.40;4.20;;;;;;;21.31;76.24;100501.63;95273;1180;81961;-61
2021/09/01 08:07:16;;;;;;;7.00;4.60;;;;;;;21.68;73.16;100504.36;95269;1180;97282;-61
2021/09/01 08:09:24;;;;;;;8.60;4.40;;;;;;;21.18;71.73;100508.55;95303;1180;85980;-61
2021/09/01 08:11:31;;;;;;;6.50;4.40;;;;;;;20.71;71.96;100511.25;95255;1180;94001;-61
2021/09/01 08:13:39;;;;;;;5.90;4.60;;;;;;;20.12;71.92;100509.38;95267;1180;77946;-60
2021/09/01 08:15:50;;;;;;;6.90;4.40;;;;;;;19.76;71.62;100508.91;95242;1180;81980;-60
2021/09/01 08:18:00;;;;;;;5.50;4.30;;;;;;;19.50;72.28;100512.02;95229;1180;96583;-63
2021/09/01 08:20:14;;;;;;;5.40;4.30;;;;;;;20.03;72.17;100513.33;95268;1180;87851;-63
2021/09/01 08:22:22;;;;;;;5.40;4.10;;;;;;;20.04;70.87;100517.64;95280;1180;93066;-63
2021/09/01 08:24:32;;;;;;;6.60;4.40;;;;;;;19.50;71.11;100523.21;95284;1180;79513;-63
2021/09/01 08:26:41;;;;;;;4.80;4.30;;;;;;;18.97;71.61;100533.98;95275;1180;82266;-62
2021/09/01 08:28:50;;;;;;;6.00;4.80;;;;;;;18.49;71.83;100539.00;95236;1180;98098;-61
2021/09/01 08:30:57;;;;;;;5.80;4.30;;;;;;;18.17;72.32;100543.49;95282;1180;86806;-60
2021/09/01 08:33:05;;;;;;;8.00;4.70;;;;;;;17.97;72.73;100546.34;95239;1180;92902;-61
2021/09/01 08:35:14;;;;;;;5.50;4.50;;;;;;;17.87;73.51;100541.59;95258;1180;79771;-60
2021/09/01 08:37:21;;;;;;;6.90;5.00;;;;;;;17.82;72.26;100547.23;95247;1180;82163;-60
2021/09/01 08:39:29;;;;;;;6.20;4.60;;;;;;;17.85;73.57;100545.02;95304;1180;97519;-61
2021/09/01 08:41:39;;;;;;;6.30;5.00;;;;;;;17.82;73.48;100545.09;95273;1180;87299;-59
2021/09/01 08:43:47;;;;;;;7.10;4.60;;;;;;;17.82;73.24;100554.67;95226;1180;93967;-60
2021/09/01 08:45:55;;;;;;;6.30;4.40;;;;;;;17.80;73.26;100558.23;95240;1180;77173;-61
2021/09/01 08:48:07;;;;;;;6.60;4.20;;;;;;;17.71;73.18;100558.68;95227;1180;81844;-59
2021/09/01 08:50:16;;;;;;;6.70;4.70;;;;;;;17.60;73.66;100559.04;95237;1180;97672;-61
2021/09/01 08:52:24;;;;;;;7.20;4.30;;;;;;;18.61;75.31;100564.61;95262;1180;88151;-59
2021/09/01 08:54:35;;;;;;;6.30;4.40;;;;;;;20.33;74.75;100553.16;95241;1180;93481;-58
2021/09/01 08:56:43;;;;;;;8.30;4.60;;;;;;;21.80;72.67;100554.42;95267;1180;79337;-58
2021/09/01 08:58:54;;;;;;;7.10;4.50;;;;;;;23.19;71.22;100551.92;95230;1180;80109;-60
2021/09/01 09:01:05;;;;;;;6.30;4.20;;;;;;;23.99;67.28;100550.23;95307;1180;98017;-61
2021/09/01 09:03:13;;;;;;;4.90;4.00;;;;;;;23.48;63.42;100560.95;95249;1180;87374;-62
2021/09/01 09:05:32;;;;;;;6.60;4.50;;;;;;;23.06;62.68;100561.61;95295;1180;93504;-63
2021/09/01 09:07:55;;;;;;;6.20;4.40;;;;;;;22.57;58.89;100570.03;95255;1180;77982;-61
2021/09/01 09:10:24;;;;;;;5.40;4.00;;;;;;;22.67;60.14;100570.79;95278;1180;81251;-60
2021/09/01 09:12:37;;;;;;;6.90;4.20;;;;;;;22.88;58.83;100565.65;95237;1180;98967;-60
2021/09/01 09:14:50;;;;;;;5.90;4.40;;;;;;;23.54;59.79;100559.86;95228;1180;86224;-60
2021/09/01 09:17:12;;;;;;;5.70;4.20;;;;;;;23.87;58.27;100555.16;95247;1180;92928;-60
2021/09/01 09:19:20;;;;;;;4.40;3.90;;;;;;;23.54;56.96;100564.67;95249;1181;79731;-60
2021/09/01 09:21:34;;;;;;;6.60;4.40;;;;;;;22.77;55.75;100573.63;95281;1180;83352;-61
2021/09/01 09:23:43;;;;;;;5.50;4.30;;;;;;;21.87;58.30;100575.25;95259;1180;97911;-62
2021/09/01 09:25:50;;;;;;;4.80;3.90;;;;;;;21.58;60.11;100575.48;95322;1180;87499;-60
2021/09/01 09:28:00;;;;;;;4.90;4.30;;;;;;;21.28;59.39;100574.91;95221;1180;93828;-59
2021/09/01 09:30:31;;;;;;;5.30;4.40;;;;;;;20.94;60.84;100578.93;95237;1180;79519;-60
2021/09/01 09:32:49;;;;;;;7.00;4.80;;;;;;;21.01;60.76;100583.06;95266;1180;80679;-60
2021/09/01 09:35:00;;;;;;;6.10;4.90;;;;;;;20.79;61.13;100585.09;95291;1180;98074;-58
2021/09/01 09:37:10;;;;;;;4.60;4.00;;;;;;;21.15;61.55;100580.02;95239;1180;87276;-61
2021/09/01 09:39:36;;;;;;;5.50;4.30;;;;;;;20.93;61.94;100587.59;95288;1180;93430;-61
2021/09/01 09:41:43;;;;;;;7.50;4.20;;;;;;;21.09;61.97;100584.38;95275;1180;79440;-62
2021/09/01 09:43:53;;;;;;;9.30;4.60;;;;;;;21.03;60.75;100584.60;95211;1180;81125;-62
2021/09/01 09:46:10;;;;;;;5.70;4.60;;;;;;;20.86;60.28;100586.38;95217;1181;98186;-63
2021/09/01 09:48:29;;;;;;;4.40;3.70;;;;;;;20.61;61.06;100583.66;95201;1180;86725;-62
2021/09/01 09:50:37;;;;;;;5.40;4.50;;;;;;;20.71;61.98;100587.04;95275;1180;94643;-60
2021/09/01 09:52:49;;;;;;;6.40;3.90;;;;;;;20.70;62.22;100584.55;95275;1180;78165;-61
2021/09/01 09:55:09;;;;;;;4.70;3.40;;;;;;;20.69;62.27;100591.02;95284;1180;82490;-62
2021/09/01 09:57:19;;;;;;;5.60;4.00;;;;;;;20.46;62.34;100589.18;95250;1180;97768;-61
2021/09/01 09:59:27;;;;;;;5.10;3.80;;;;;;;20.27;62.86;100588.45;95313;1180;86781;-62